createdAt,value
2022-11-22T00:00:51.212Z,74.51
2022-11-22T00:03:19.293Z,73.44
2022-11-22T00:05:47.111Z,74.60
2022-11-22T00:08:14.523Z,73.56
2022-11-22T00:10:42.017Z,73.79
2022-11-22T00:13:09.714Z,73.49
2022-11-22T00:15:37.161Z,72.98
2022-11-22T00:18:04.673Z,72.20
2022-11-22T00:20:32.120Z,73.15
2022-11-22T00:22:59.602Z,72.67
2022-11-22T00:25:27.636Z,72.29
2022-11-22T00:27:55.238Z,72.71
2022-11-22T00:30:22.849Z,72.64
2022-11-22T00:32:50.332Z,72.26
2022-11-22T00:35:17.659Z,71.84
2022-11-22T00:37:45.016Z,72.07
2022-11-22T00:40:12.603Z,72.42
2022-11-22T00:42:39.924Z,71.94
2022-11-22T00:45:08.484Z,72.33
2022-11-22T00:47:36.346Z,71.61
2022-11-22T00:50:05.523Z,71.50
2022-11-22T00:52:33.128Z,71.08
2022-11-22T00:55:00.440Z,71.32
2022-11-22T00:57:27.703Z,71.49
2022-11-22T00:59:55.066Z,71.46
2022-11-22T01:02:22.431Z,70.81
2022-11-22T01:04:49.808Z,70.94
2022-11-22T01:07:17.160Z,70.50
2022-11-22T01:09:44.508Z,70.63
2022-11-22T01:12:11.891Z,71.01
2022-11-22T01:14:39.203Z,71.06
2022-11-22T01:17:06.707Z,71.05
2022-11-22T01:19:34.027Z,70.42
2022-11-22T01:22:01.396Z,70.36
2022-11-22T01:24:28.727Z,70.08
2022-11-22T01:26:56.464Z,70.32
2022-11-22T01:29:23.870Z,69.92
2022-11-22T01:31:51.213Z,70.26
2022-11-22T01:34:18.570Z,70.27
2022-11-22T01:36:45.898Z,71.05
2022-11-22T01:39:13.300Z,70.71
2022-11-22T01:41:40.639Z,70.62
2022-11-22T01:44:33.175Z,70.74
2022-11-22T01:47:14.329Z,70.38
2022-11-22T01:50:05.447Z,70.39
2022-11-22T01:52:34.735Z,70.79
2022-11-22T01:55:13.014Z,70.41
2022-11-22T01:57:44.068Z,70.40
2022-11-22T02:00:17.242Z,71.26
2022-11-22T02:02:57.547Z,71.71
2022-11-22T02:05:31.174Z,71.81
2022-11-22T02:08:34.346Z,70.20
2022-11-22T02:11:03.830Z,70.54
2022-11-22T02:13:37.746Z,69.50
2022-11-22T02:16:05.691Z,70.00
2022-11-22T02:18:37.151Z,69.80
2022-11-22T02:21:05.959Z,69.53
2022-11-22T02:24:19.397Z,70.30
2022-11-22T02:26:46.841Z,69.93
2022-11-22T02:29:14.882Z,69.93
2022-11-22T02:31:47.606Z,69.22
2022-11-22T02:34:16.592Z,70.05
2022-11-22T02:36:54.818Z,70.35
2022-11-22T02:39:31.733Z,69.81
2022-11-22T02:41:59.545Z,70.51
2022-11-22T02:44:27.039Z,70.02
2022-11-22T02:46:55.705Z,70.16
2022-11-22T02:49:25.956Z,69.88
2022-11-22T02:51:53.986Z,69.96
2022-11-22T02:54:22.125Z,69.20
2022-11-22T02:56:49.662Z,69.84
2022-11-22T02:59:17.007Z,69.94
2022-11-22T03:01:46.611Z,69.58
2022-11-22T03:04:24.699Z,69.14
2022-11-22T03:06:59.203Z,69.61
2022-11-22T03:09:28.166Z,69.78
2022-11-22T03:11:55.844Z,69.87
2022-11-22T03:14:23.329Z,69.05
2022-11-22T03:16:50.773Z,69.26
2022-11-22T03:19:18.361Z,69.33
2022-11-22T03:21:45.820Z,69.42
2022-11-22T03:24:13.410Z,69.37
2022-11-22T03:26:40.795Z,69.90
2022-11-22T03:29:08.110Z,70.47
2022-11-22T03:31:35.877Z,71.06
2022-11-22T03:34:03.246Z,71.34
2022-11-22T03:36:30.619Z,70.96
2022-11-22T03:38:59.209Z,70.45
2022-11-22T03:41:26.554Z,71.48
2022-11-22T03:43:53.876Z,71.29
2022-11-22T03:46:21.545Z,71.23
2022-11-22T03:48:48.951Z,71.05
2022-11-22T03:51:16.314Z,71.16
2022-11-22T03:53:43.772Z,72.01
2022-11-22T03:56:11.212Z,71.78
2022-11-22T03:58:38.556Z,72.93
2022-11-22T04:01:05.963Z,69.98
2022-11-22T04:03:33.739Z,70.31
2022-11-22T04:06:01.163Z,68.58
2022-11-22T04:08:28.518Z,67.59
2022-11-22T04:10:55.895Z,68.20
2022-11-22T04:13:43.162Z,68.09
2022-11-22T04:16:10.537Z,68.20
2022-11-22T04:18:38.007Z,68.65
2022-11-22T04:21:23.810Z,68.21
2022-11-22T04:24:11.089Z,67.94
2022-11-22T04:26:38.503Z,68.13
2022-11-22T04:29:10.351Z,68.02
2022-11-22T04:31:57.099Z,67.13
2022-11-22T04:34:24.695Z,67.25
2022-11-22T04:36:52.241Z,67.68
2022-11-22T04:39:19.603Z,67.27
2022-11-22T04:41:47.004Z,66.98
2022-11-22T04:44:33.231Z,67.14
2022-11-22T04:47:00.579Z,66.17
2022-11-22T04:49:28.397Z,66.36
2022-11-22T04:52:14.554Z,66.43
2022-11-22T04:54:41.900Z,66.37
2022-11-22T04:57:09.922Z,66.33
2022-11-22T04:59:37.216Z,66.56
2022-11-22T05:02:04.674Z,66.27
2022-11-22T05:04:32.230Z,65.95
2022-11-22T05:06:59.631Z,65.71
2022-11-22T05:09:27.167Z,65.65
2022-11-22T05:11:54.812Z,65.74
2022-11-22T05:14:22.197Z,66.54
2022-11-22T05:16:49.579Z,66.36
2022-11-22T05:19:16.911Z,66.31
2022-11-22T05:21:44.276Z,66.52
2022-11-22T05:24:11.696Z,65.66
2022-11-22T05:26:39.411Z,65.39
2022-11-22T05:29:10.826Z,65.11
2022-11-22T05:31:40.072Z,64.69
2022-11-22T05:34:07.708Z,64.89
2022-11-22T05:36:36.074Z,65.03
2022-11-22T05:39:03.983Z,65.88
2022-11-22T05:41:31.303Z,65.10
2022-11-22T05:43:59.030Z,65.01
2022-11-22T05:46:31.242Z,65.53
2022-11-22T05:48:59.602Z,66.51
2022-11-22T05:51:34.654Z,65.52
2022-11-22T05:54:03.621Z,65.72
2022-11-22T05:56:30.983Z,64.88
2022-11-22T05:58:58.774Z,65.40
2022-11-22T06:01:26.454Z,64.21
2022-11-22T06:03:54.656Z,64.24
2022-11-22T06:06:22.234Z,63.56
2022-11-22T06:08:51.182Z,63.77
2022-11-22T06:11:25.919Z,63.38
2022-11-22T06:14:05.288Z,63.19
2022-11-22T06:16:32.789Z,63.32
2022-11-22T06:19:00.139Z,63.49
2022-11-22T06:21:28.909Z,63.95
2022-11-22T06:23:56.635Z,62.79
2022-11-22T06:26:26.013Z,63.53
2022-11-22T06:28:55.212Z,62.72
2022-11-22T06:31:27.125Z,62.47
2022-11-22T06:33:59.651Z,63.08
2022-11-22T06:36:34.466Z,63.34
2022-11-22T06:39:04.623Z,64.62
2022-11-22T06:41:38.002Z,63.84
2022-11-22T06:44:09.511Z,63.03
2022-11-22T06:46:38.912Z,62.66
2022-11-22T06:49:06.407Z,63.75
2022-11-22T06:51:34.086Z,63.34
2022-11-22T06:54:01.597Z,63.66
2022-11-22T06:56:37.110Z,63.93
2022-11-22T06:59:07.489Z,62.87
2022-11-22T07:01:37.687Z,62.81
2022-11-22T07:04:05.936Z,61.83
2022-11-22T07:06:38.477Z,61.60
2022-11-22T07:09:12.048Z,62.39
2022-11-22T07:11:40.794Z,61.28
2022-11-22T07:14:09.325Z,61.83
2022-11-22T07:16:38.979Z,61.44
2022-11-22T07:19:07.457Z,60.79
2022-11-22T07:21:37.371Z,60.55
2022-11-22T07:24:07.073Z,61.82
2022-11-22T07:26:34.584Z,61.74
2022-11-22T07:29:01.939Z,61.98
2022-11-22T07:31:32.130Z,60.63
2022-11-22T07:33:59.649Z,61.89
2022-11-22T07:36:29.502Z,61.39
2022-11-22T07:38:57.622Z,62.76
2022-11-22T07:41:25.092Z,62.26
2022-11-22T07:43:53.116Z,61.11
2022-11-22T07:46:29.986Z,60.67
2022-11-22T07:49:02.642Z,61.25
2022-11-22T07:51:30.809Z,60.14
2022-11-22T07:53:58.373Z,60.01
2022-11-22T07:56:25.918Z,59.93
2022-11-22T07:58:54.785Z,60.96
2022-11-22T08:01:23.660Z,60.67
2022-11-22T08:03:51.196Z,61.48
2022-11-22T08:06:18.602Z,59.83
2022-11-22T08:08:45.923Z,60.44
2022-11-22T08:11:13.456Z,61.29
2022-11-22T08:13:41.294Z,60.77
2022-11-22T08:16:17.632Z,60.04
2022-11-22T08:18:50.212Z,61.38
2022-11-22T08:21:19.359Z,60.28
2022-11-22T08:23:48.761Z,59.76
2022-11-22T08:26:18.812Z,59.68
2022-11-22T08:28:46.409Z,59.53
2022-11-22T08:31:19.795Z,59.69
2022-11-22T08:33:48.816Z,60.97
2022-11-22T08:36:16.267Z,58.91
2022-11-22T08:38:43.867Z,57.71
2022-11-22T08:41:30.429Z,60.33
2022-11-22T08:44:09.087Z,59.05
2022-11-22T08:46:56.948Z,59.62
2022-11-22T08:49:33.739Z,61.24
2022-11-22T08:52:23.543Z,59.64
2022-11-22T08:55:01.420Z,58.71
2022-11-22T08:57:44.646Z,55.71
2022-11-22T09:00:44.659Z,55.65
2022-11-22T09:03:17.798Z,57.65
2022-11-22T09:09:40.676Z,56.08
2022-11-22T09:12:27.915Z,56.98
2022-11-22T09:18:43.192Z,55.45
2022-11-22T09:22:02.555Z,54.39
2022-11-22T09:24:58.875Z,54.87
2022-11-22T09:27:45.662Z,54.73
2022-11-22T09:30:34.690Z,54.34
2022-11-22T09:33:26.906Z,53.10
2022-11-22T09:36:48.313Z,53.43
2022-11-22T09:39:29.751Z,53.43
2022-11-22T09:46:55.747Z,53.08
2022-11-22T09:50:44.552Z,53.91
2022-11-22T09:58:01.080Z,53.90
2022-11-22T10:00:56.735Z,53.97
2022-11-22T10:04:35.198Z,54.36
2022-11-22T10:07:42.462Z,54.26
2022-11-22T10:10:24.852Z,54.43
2022-11-22T10:13:05.880Z,54.35
2022-11-22T10:16:22.539Z,54.65
2022-11-22T10:19:22.520Z,54.91
2022-11-22T10:21:50.426Z,55.00
2022-11-22T10:24:19.805Z,54.95
2022-11-22T10:26:47.823Z,55.48
2022-11-22T10:29:39.632Z,54.70
2022-11-22T10:33:02.136Z,53.91
2022-11-22T10:36:00.094Z,54.33
2022-11-22T10:39:22.975Z,52.87
2022-11-22T10:42:34.446Z,52.95
2022-11-22T10:46:01.351Z,52.07
2022-11-22T10:48:59.956Z,51.58
2022-11-22T10:52:04.152Z,51.31
2022-11-22T10:55:16.759Z,50.71
2022-11-22T10:58:01.936Z,50.76
2022-11-22T11:00:33.343Z,51.52
2022-11-22T11:03:32.010Z,51.17
2022-11-22T11:06:56.883Z,50.62
2022-11-22T11:10:14.733Z,51.93
2022-11-22T11:13:02.773Z,51.79
2022-11-22T11:15:54.299Z,52.38
2022-11-22T11:18:51.794Z,52.05
2022-11-22T11:21:19.230Z,52.08
2022-11-22T11:23:48.173Z,52.77
2022-11-22T11:26:34.687Z,51.26
2022-11-22T11:29:17.159Z,52.36
2022-11-22T11:31:51.650Z,51.40
2022-11-22T11:34:29.659Z,51.59
2022-11-22T11:36:59.608Z,52.10
2022-11-22T11:39:36.261Z,51.81
2022-11-22T11:42:29.368Z,52.67
2022-11-22T11:45:25.305Z,53.82
2022-11-22T11:47:52.673Z,53.84
2022-11-22T11:50:28.235Z,54.46
2022-11-22T11:53:15.852Z,53.49
2022-11-22T11:55:43.243Z,53.75
2022-11-22T11:58:29.213Z,53.16
2022-11-22T12:00:57.838Z,53.13
2022-11-22T12:03:26.164Z,52.74
2022-11-22T12:06:14.086Z,52.31
2022-11-22T12:08:42.147Z,51.35
2022-11-22T12:11:26.460Z,50.93
2022-11-22T12:14:19.667Z,51.30
2022-11-22T12:16:54.235Z,51.43
2022-11-22T12:19:40.995Z,50.86
2022-11-22T12:23:14.355Z,50.40
2022-11-22T12:25:43.205Z,50.33
2022-11-22T12:28:27.619Z,50.30
2022-11-22T12:31:23.849Z,49.59
2022-11-22T12:34:03.760Z,49.42
2022-11-22T12:36:54.258Z,49.26
2022-11-22T12:39:29.291Z,49.82
2022-11-22T12:42:33.116Z,50.11
2022-11-22T12:45:41.184Z,50.52
2022-11-22T12:48:33.384Z,50.72
2022-11-22T12:51:15.163Z,50.54
2022-11-22T12:53:45.733Z,50.51
2022-11-22T12:56:38.914Z,50.64
2022-11-22T12:59:27.332Z,50.56
2022-11-22T13:02:58.674Z,50.53
2022-11-22T13:05:44.778Z,50.26
2022-11-22T13:08:53.840Z,50.34
2022-11-22T13:11:58.390Z,50.68
2022-11-22T13:14:56.036Z,49.99
2022-11-22T13:17:27.082Z,50.46
2022-11-22T13:20:44.972Z,49.25
2022-11-22T13:23:56.088Z,49.87
2022-11-22T13:27:17.966Z,49.31
2022-11-22T13:29:47.532Z,49.37
2022-11-22T13:32:19.978Z,50.00
2022-11-22T13:35:12.817Z,49.26
2022-11-22T13:38:12.602Z,49.72
2022-11-22T13:40:52.368Z,49.53
2022-11-22T13:44:26.599Z,49.68
2022-11-22T13:47:25.291Z,49.93
2022-11-22T13:49:56.424Z,49.89
2022-11-22T13:52:25.289Z,49.90
2022-11-22T13:54:58.717Z,50.15
2022-11-22T13:57:41.432Z,49.92
2022-11-22T14:00:14.803Z,49.71
2022-11-22T14:03:41.187Z,49.89
2022-11-22T14:06:31.498Z,49.49
2022-11-22T14:09:44.192Z,49.89
2022-11-22T14:12:11.598Z,49.94
2022-11-22T14:15:47.937Z,49.81
2022-11-22T14:19:17.647Z,49.79
2022-11-22T14:22:47.340Z,51.08
2022-11-22T14:26:08.630Z,49.47
2022-11-22T14:29:16.002Z,49.66
2022-11-22T14:31:52.234Z,49.51
2022-11-22T14:34:30.286Z,49.59
2022-11-22T14:37:13.010Z,49.71
2022-11-22T14:39:53.376Z,49.45
2022-11-22T14:42:47.215Z,48.90
2022-11-22T14:45:52.329Z,49.40
2022-11-22T14:48:32.115Z,48.42
2022-11-22T14:51:15.782Z,48.12
2022-11-22T14:54:07.707Z,48.56
2022-11-22T14:56:36.637Z,48.31
2022-11-22T15:00:02.708Z,48.63
2022-11-22T15:03:15.245Z,48.39
2022-11-22T15:09:15.368Z,47.77
2022-11-22T15:10:03.365Z,48.32
2022-11-22T15:13:39.053Z,48.23
2022-11-22T15:57:45.533Z,49.16
2022-11-22T16:00:29.518Z,49.26
2022-11-22T16:03:06.665Z,49.64
2022-11-22T16:06:07.397Z,49.27
2022-11-22T16:08:30.856Z,49.18
2022-11-22T16:11:00.084Z,49.44
2022-11-22T16:13:36.051Z,49.50
2022-11-22T16:16:12.630Z,50.11
2022-11-22T16:18:42.675Z,50.14
2022-11-22T16:21:15.453Z,50.02
2022-11-22T16:23:47.285Z,49.92
2022-11-22T16:26:29.538Z,49.69
2022-11-22T16:29:29.377Z,49.97
2022-11-22T16:32:13.712Z,50.13
2022-11-22T16:34:43.279Z,50.50
2022-11-22T16:37:36.202Z,50.27
2022-11-22T16:40:06.134Z,50.69
2022-11-22T16:42:35.438Z,50.65
2022-11-22T16:45:04.473Z,51.02
2022-11-22T16:47:32.030Z,51.01
2022-11-22T16:49:59.615Z,51.11
2022-11-22T16:52:26.973Z,51.26
2022-11-22T16:54:54.332Z,51.37
2022-11-22T16:57:21.715Z,51.11
2022-11-22T16:59:49.042Z,51.50
2022-11-22T17:02:18.170Z,51.50
2022-11-22T17:04:46.872Z,51.92
2022-11-22T17:07:16.050Z,52.00
2022-11-22T17:09:43.636Z,52.03
2022-11-22T17:12:29.091Z,51.95
2022-11-22T17:14:59.696Z,51.66
2022-11-22T17:17:27.124Z,52.20
2022-11-22T17:19:54.491Z,52.28
2022-11-22T17:22:21.932Z,52.78
2022-11-22T17:24:49.360Z,52.56
2022-11-22T17:27:16.673Z,53.32
2022-11-22T17:29:51.493Z,52.75
2022-11-22T17:32:20.596Z,53.13
2022-11-22T17:34:47.948Z,52.73
2022-11-22T17:37:15.261Z,53.26
2022-11-22T17:39:42.643Z,52.88
2022-11-22T17:42:12.072Z,52.81
2022-11-22T17:44:39.463Z,53.51
2022-11-22T17:47:06.816Z,53.78
2022-11-22T17:49:34.561Z,53.61
2022-11-22T17:52:02.030Z,53.84
2022-11-22T17:54:29.376Z,53.19
2022-11-22T17:56:56.716Z,53.36
2022-11-22T17:59:24.088Z,53.18
2022-11-22T18:01:51.487Z,53.50
2022-11-22T18:04:18.971Z,53.13
2022-11-22T18:06:46.266Z,53.19
2022-11-22T18:09:13.667Z,52.90
2022-11-22T18:11:40.966Z,53.05
2022-11-22T18:14:09.919Z,53.12
2022-11-22T18:16:37.800Z,53.26
2022-11-22T18:19:05.203Z,53.35
2022-11-22T18:21:33.315Z,53.50
2022-11-22T18:24:01.897Z,53.47
2022-11-22T18:26:44.923Z,53.26
2022-11-22T18:32:02.600Z,53.53
2022-11-22T18:34:30.958Z,53.12
2022-11-22T18:37:02.495Z,52.71
2022-11-22T18:39:39.194Z,53.27
2022-11-22T18:42:14.993Z,51.81
2022-11-22T18:44:42.500Z,53.21
2022-11-22T18:47:09.976Z,53.52
2022-11-22T18:49:37.760Z,54.06
2022-11-22T18:52:05.671Z,53.67
2022-11-22T18:54:33.698Z,53.50
2022-11-22T18:57:01.690Z,52.86
2022-11-22T18:59:29.119Z,52.95
2022-11-22T19:01:56.549Z,53.12
2022-11-22T19:04:23.884Z,54.43
2022-11-22T19:06:51.702Z,53.43
2022-11-22T19:09:19.103Z,52.75
2022-11-22T19:11:46.416Z,53.01
2022-11-22T19:14:13.771Z,53.22
2022-11-22T19:16:42.049Z,52.97
2022-11-22T19:19:12.008Z,54.05
2022-11-22T19:21:39.663Z,54.21
2022-11-22T19:24:07.106Z,53.37
2022-11-22T19:26:34.589Z,53.81
2022-11-22T19:29:02.857Z,54.14
2022-11-22T19:31:31.544Z,53.07
2022-11-22T19:34:00.161Z,54.20
2022-11-22T19:36:36.411Z,53.88
2022-11-22T19:39:14.355Z,53.68
2022-11-22T19:41:44.201Z,53.60
2022-11-22T19:44:12.210Z,54.07
2022-11-22T19:46:41.412Z,54.05
2022-11-22T19:49:10.105Z,53.17
2022-11-22T19:51:39.719Z,52.83
2022-11-22T19:54:09.042Z,53.58
2022-11-22T19:56:40.534Z,53.88
2022-11-22T19:59:17.855Z,52.69
2022-11-22T20:01:48.528Z,53.10
2022-11-22T20:04:17.346Z,53.33
2022-11-22T20:06:49.922Z,53.51
2022-11-22T20:09:17.751Z,53.34
2022-11-22T20:11:45.649Z,53.59
2022-11-22T20:14:13.017Z,54.25
2022-11-22T20:16:41.711Z,54.03
2022-11-22T20:19:11.340Z,55.12
2022-11-22T20:21:39.608Z,54.10
2022-11-22T20:24:07.732Z,54.35
2022-11-22T20:26:35.718Z,53.76
2022-11-22T20:29:13.678Z,53.31
2022-11-22T20:31:41.359Z,54.46
2022-11-22T20:34:10.404Z,53.64
2022-11-22T20:36:37.743Z,54.06
2022-11-22T20:39:10.392Z,54.93
2022-11-22T20:41:39.324Z,55.23
2022-11-22T20:44:13.703Z,54.82
2022-11-22T20:46:41.777Z,55.39
2022-11-22T20:49:09.207Z,55.26
2022-11-22T20:51:39.548Z,55.69
2022-11-22T20:54:08.521Z,56.12
2022-11-22T20:56:37.974Z,55.53
2022-11-22T20:59:05.932Z,56.00
2022-11-22T21:01:33.471Z,55.51
2022-11-22T21:04:01.206Z,55.66
2022-11-22T21:06:29.286Z,55.33
2022-11-22T21:08:56.711Z,55.26
2022-11-22T21:11:30.956Z,53.28
2022-11-22T21:13:59.079Z,53.77
2022-11-22T21:16:29.780Z,53.91
2022-11-22T21:19:06.680Z,57.02
2022-11-22T21:21:36.472Z,55.79
2022-11-22T21:24:06.863Z,55.58
2022-11-22T21:26:35.083Z,56.07
2022-11-22T21:29:04.811Z,54.95
2022-11-22T21:31:32.192Z,56.39
2022-11-22T21:33:59.582Z,56.84
2022-11-22T21:36:27.000Z,55.90
2022-11-22T21:38:54.348Z,55.05
2022-11-22T21:44:10.978Z,55.10
2022-11-22T21:46:38.640Z,55.58
2022-11-22T21:49:06.742Z,55.74
2022-11-22T21:51:34.072Z,56.09
2022-11-22T21:54:03.363Z,55.94
2022-11-22T21:56:31.670Z,55.45
2022-11-22T21:58:59.788Z,54.99
2022-11-22T22:01:27.727Z,54.83
2022-11-22T22:03:55.254Z,54.21
2022-11-22T22:06:23.417Z,55.07
2022-11-22T22:08:50.781Z,56.38
2022-11-22T22:11:18.196Z,55.13
2022-11-22T22:13:45.751Z,56.53
2022-11-22T22:16:18.749Z,55.90
2022-11-22T22:18:47.157Z,56.64
2022-11-22T22:21:18.015Z,56.70
2022-11-22T22:23:46.342Z,56.82
2022-11-22T22:26:17.444Z,57.00
2022-11-22T22:28:45.906Z,56.41
2022-11-22T22:31:22.427Z,56.13
2022-11-22T22:33:55.429Z,55.99
2022-11-22T22:36:26.885Z,56.26
2022-11-22T22:38:55.051Z,57.29
2022-11-22T22:41:22.471Z,57.29
2022-11-22T22:43:49.973Z,58.13
2022-11-22T22:46:24.891Z,57.86
2022-11-22T22:48:54.979Z,56.98
2022-11-22T22:51:33.091Z,56.98
2022-11-22T22:54:01.722Z,56.65
2022-11-22T22:56:31.436Z,57.35
2022-11-22T22:59:00.991Z,57.37
2022-11-22T23:01:31.870Z,56.88
2022-11-22T23:04:01.941Z,57.29
2022-11-22T23:06:35.472Z,56.71
2022-11-22T23:09:08.715Z,56.80
2022-11-22T23:11:55.707Z,57.12
2022-11-22T23:14:28.395Z,57.78
2022-11-22T23:16:58.171Z,58.61
2022-11-22T23:19:27.423Z,59.49
2022-11-22T23:21:56.367Z,60.41
2022-11-22T23:24:23.863Z,60.89
2022-11-22T23:26:51.444Z,60.89
2022-11-22T23:29:18.984Z,59.91
2022-11-22T23:31:46.275Z,59.28
2022-11-22T23:34:13.680Z,58.77
2022-11-22T23:36:41.440Z,58.23
2022-11-22T23:39:10.070Z,57.51
2022-11-22T23:41:37.767Z,57.80
2022-11-22T23:44:05.739Z,57.78
2022-11-22T23:46:33.107Z,57.72
2022-11-22T23:49:03.624Z,58.07
2022-11-22T23:51:33.018Z,58.08
2022-11-22T23:54:06.179Z,58.07
2022-11-22T23:56:36.306Z,58.09
2022-11-22T23:59:05.612Z,58.36
